Time;durP1;ratioP1;P1;durP2;ratioP2;P2;SDS_P1;SDS_P2;PMS_P1;PMS_P2;Temp;Humidity;BMP_temperature;BMP_pressure;BME280_temperature;BME280_humidity;BME280_pressure;Samples;Min_cycle;Max_cycle;Signal;HPM_P1;HPM_P2
2023/12/28 00:01:26;;;;;;;5.13;2.50;;;7.90;99.90;;;6.91;87.49;100155.97;5037105;28;20290;-74
2023/12/28 00:03:53;;;;;;;3.67;2.40;;;7.90;99.90;;;6.88;88.25;100145.63;5036969;28;20209;-74
2023/12/28 00:06:23;;;;;;;3.40;2.23;;;7.90;99.90;;;7.00;86.37;100147.91;5036831;28;20233;-74
2023/12/28 00:08:51;;;;;;;3.73;2.53;;;7.90;99.90;;;7.07;85.61;100142.81;5036791;28;20226;-75
2023/12/28 00:11:31;;;;;;;3.87;2.43;;;8.00;99.90;;;7.09;86.54;100132.84;5036878;28;20198;-75
2023/12/28 00:13:59;;;;;;;5.17;2.37;;;8.00;99.90;;;7.12;86.16;100133.38;5036808;28;20652;-75
2023/12/28 00:16:28;;;;;;;2.80;2.10;;;8.10;99.90;;;7.15;85.56;100124.28;5036724;28;20324;-74
2023/12/28 00:18:56;;;;;;;3.43;2.20;;;8.10;99.90;;;7.18;86.74;100126.63;5036680;28;20317;-74
2023/12/28 00:21:26;;;;;;;3.13;1.97;;;8.20;99.90;;;7.19;85.17;100128.31;5036481;28;20669;-75
2023/12/28 00:23:54;;;;;;;2.97;2.00;;;8.20;99.90;;;7.15;86.15;100132.25;5036289;28;20207;-75
2023/12/28 00:26:22;;;;;;;4.77;2.27;;;8.10;99.90;;;7.17;85.29;100129.41;5036237;28;20599;-75
2023/12/28 00:28:50;;;;;;;3.60;2.17;;;8.10;99.90;;;7.12;86.43;100128.06;5036474;28;20227;-75
2023/12/28 00:31:18;;;;;;;3.63;2.00;;;8.10;99.90;;;7.16;86.66;100154.38;5036548;28;20210;-75
2023/12/28 00:33:47;;;;;;;3.07;2.13;;;8.10;99.90;;;7.16;86.91;100160.53;5036069;28;20772;-74
2023/12/28 00:36:16;;;;;;;6.30;2.23;;;8.20;99.90;;;7.13;88.72;100166.16;5036042;28;20207;-75
2023/12/28 00:38:45;;;;;;;2.60;2.30;;;8.00;99.90;;;7.16;88.50;100179.16;5036398;28;20226;-74
2023/12/28 00:41:13;;;;;;;6.33;2.80;;;8.10;99.90;;;7.10;90.54;100179.78;5036277;28;20301;-74
2023/12/28 00:43:41;;;;;;;4.10;2.10;;;8.00;99.90;;;7.17;90.90;100172.00;5035897;28;20681;-74
2023/12/28 00:46:10;;;;;;;4.27;2.27;;;8.10;99.90;;;7.30;90.67;100183.97;5036109;28;20332;-74
2023/12/28 00:48:38;;;;;;;4.03;2.13;;;8.20;99.90;;;7.32;91.64;100176.66;5035980;28;20269;-74
2023/12/28 00:51:07;;;;;;;4.37;2.23;;;8.30;99.90;;;7.31;93.61;100179.47;5034920;28;20251;-74
2023/12/28 00:53:35;;;;;;;2.97;2.20;;;8.20;99.90;;;7.32;96.88;100182.00;5034641;28;20246;-74
2023/12/28 00:56:05;;;;;;;3.30;1.90;;;8.30;99.90;;;7.38;97.93;100188.53;5034884;28;20209;-74
2023/12/28 00:58:33;;;;;;;6.80;2.53;;;8.20;99.90;;;7.34;99.32;100188.00;5035165;28;20634;-74
2023/12/28 01:01:02;;;;;;;4.47;2.27;;;8.20;99.90;;;7.34;99.21;100177.34;5035008;28;20202;-74
2023/12/28 01:03:30;;;;;;;3.73;1.93;;;8.20;99.90;;;7.33;100.00;100177.50;5034722;28;20203;-75
2023/12/28 01:05:59;;;;;;;4.63;2.20;;;8.30;99.90;;;7.32;100.00;100176.66;5034635;28;20222;-74
2023/12/28 01:08:27;;;;;;;3.73;2.10;;;8.40;99.90;;;7.33;100.00;100182.84;5034361;28;20712;-74
2023/12/28 01:10:55;;;;;;;4.43;2.30;;;8.20;99.90;;;7.30;100.00;100188.44;5034692;28;20202;-74
2023/12/28 01:13:25;;;;;;;4.07;2.10;;;8.20;99.90;;;7.23;100.00;100188.22;5034566;28;20207;-73
2023/12/28 01:15:53;;;;;;;3.10;2.20;;;8.10;99.90;;;7.16;100.00;100197.78;5034638;28;20298;-75
2023/12/28 01:18:21;;;;;;;4.37;2.13;;;8.10;99.90;;;7.14;100.00;100197.97;5034451;28;20285;-74
2023/12/28 01:20:49;;;;;;;4.93;2.30;;;8.00;99.90;;;7.12;100.00;100201.78;5034599;28;20211;-74
2023/12/28 01:23:18;;;;;;;4.87;2.40;;;8.00;99.90;;;7.05;100.00;100217.47;5034523;28;20317;-73
2023/12/28 01:25:46;;;;;;;5.57;2.50;;;7.90;99.90;;;7.02;100.00;100223.09;5034475;28;20310;-74
2023/12/28 01:28:14;;;;;;;4.17;2.33;;;8.00;99.90;;;6.99;100.00;100217.25;5034314;28;20230;-74
2023/12/28 01:30:44;;;;;;;5.73;2.20;;;7.90;99.90;;;6.97;100.00;100220.06;5034320;28;20210;-74
2023/12/28 01:33:12;;;;;;;3.57;2.57;;;7.90;99.90;;;6.98;100.00;100220.91;5034295;28;20196;-74
2023/12/28 01:35:41;;;;;;;2.93;2.40;;;7.80;99.90;;;7.03;100.00;100221.28;5034317;28;20620;-74
2023/12/28 01:38:10;;;;;;;4.53;2.53;;;7.90;99.90;;;7.05;100.00;100203.38;5033864;28;20254;-74
2023/12/28 01:40:38;;;;;;;3.00;2.10;;;7.90;99.90;;;7.08;100.00;100211.03;5034142;28;20290;-74
2023/12/28 01:43:06;;;;;;;4.80;2.47;;;8.00;99.90;;;7.09;100.00;100207.38;5034152;28;20238;-75
2023/12/28 01:45:34;;;;;;;3.27;2.30;;;8.00;99.90;;;7.12;100.00;100223.06;5034220;28;20297;-74
2023/12/28 01:48:05;;;;;;;2.93;2.30;;;8.00;99.90;;;7.13;100.00;100211.41;5033875;28;20260;-74
2023/12/28 01:50:34;;;;;;;4.07;2.57;;;8.00;99.90;;;7.15;100.00;100212.13;4994928;28;1137731;-74
2023/12/28 01:53:04;;;;;;;5.13;2.20;;;8.00;99.90;;;7.16;100.00;100213.78;5034932;28;20302;-74
2023/12/28 01:55:34;;;;;;;3.43;1.93;;;8.00;99.90;;;7.22;100.00;100213.19;5034609;28;20715;-74
2023/12/28 01:58:03;;;;;;;5.47;2.37;;;8.20;99.90;;;7.23;100.00;100214.84;5034467;28;20229;-74
2023/12/28 02:00:31;;;;;;;3.53;2.67;;;8.10;99.90;;;7.27;100.00;100202.91;5034782;28;20211;-74
2023/12/28 02:03:02;;;;;;;4.60;2.23;;;8.10;99.90;;;7.21;100.00;100206.19;5034828;28;20245;-73
2023/12/28 02:05:31;;;;;;;3.20;2.20;;;8.10;99.90;;;7.22;100.00;100202.53;5034622;28;20211;-74
2023/12/28 02:07:59;;;;;;;3.97;2.37;;;8.10;99.90;;;7.23;100.00;100217.50;5034912;28;20242;-74
2023/12/28 02:10:28;;;;;;;5.63;2.43;;;8.20;99.90;;;7.24;100.00;100208.53;5034024;28;20207;-74
2023/12/28 02:12:56;;;;;;;4.10;2.37;;;8.20;99.90;;;7.26;100.00;100214.53;5034568;28;20203;-74
2023/12/28 02:15:25;;;;;;;4.03;2.43;;;8.10;99.90;;;7.25;100.00;100207.56;5034530;28;20306;-74
2023/12/28 02:18:02;;;;;;;4.10;2.30;;;8.10;99.90;;;7.24;100.00;100218.34;5034444;28;20230;-74
2023/12/28 02:20:34;;;;;;;5.67;2.40;;;8.10;99.90;;;7.23;100.00;100209.50;5034442;28;20213;-74
2023/12/28 02:23:04;;;;;;;7.73;2.40;;;8.10;99.90;;;7.26;100.00;100213.72;5034434;28;20282;-75
2023/12/28 02:25:33;;;;;;;2.77;2.20;;;8.10;99.90;;;7.23;100.00;100209.50;5034419;28;20215;-75
2023/12/28 02:28:01;;;;;;;3.47;2.30;;;8.20;99.90;;;7.21;100.00;100224.81;5034141;28;20321;-74
2023/12/28 02:30:31;;;;;;;3.57;2.50;;;8.10;99.90;;;7.21;100.00;100222.16;5034271;28;20203;-74
2023/12/28 02:33:16;;;;;;;2.83;2.40;;;8.10;99.90;;;7.25;100.00;100228.00;5034218;28;20210;-74
2023/12/28 02:35:53;;;;;;;4.77;2.47;;;8.20;99.90;;;7.25;100.00;100228.84;5034215;28;20195;-74
2023/12/28 02:38:24;;;;;;;4.43;2.50;;;8.10;99.90;;;7.23;100.00;100236.13;5033751;28;20712;-73
2023/12/28 02:40:56;;;;;;;2.50;2.30;;;8.20;99.90;;;7.24;100.00;100247.63;5033833;28;20664;-73
2023/12/28 02:43:24;;;;;;;5.17;2.20;;;8.20;99.90;;;7.26;100.00;100241.16;5034153;28;20265;-73
2023/12/28 02:45:52;;;;;;;5.07;2.53;;;8.10;99.90;;;7.23;100.00;100246.78;5034011;28;20217;-73
2023/12/28 02:48:20;;;;;;;4.00;2.40;;;8.00;99.90;;;7.23;100.00;100246.78;5033850;28;20258;-72
2023/12/28 02:50:49;;;;;;;5.07;2.80;;;8.10;99.90;;;7.24;100.00;100256.47;5033449;28;20706;-72
2023/12/28 02:53:17;;;;;;;3.37;2.50;;;8.10;99.90;;;7.24;100.00;100251.13;5033977;28;20293;-72
2023/12/28 02:55:45;;;;;;;5.33;2.67;;;8.20;99.90;;;7.22;100.00;100245.13;5033542;28;20641;-72
2023/12/28 02:58:14;;;;;;;4.27;2.60;;;8.10;99.90;;;7.23;100.00;100262.75;5033684;28;20254;-72
2023/12/28 03:00:42;;;;;;;3.00;2.30;;;8.20;99.90;;;7.22;100.00;100255.78;5033725;28;20245;-73
2023/12/28 03:03:11;;;;;;;3.70;2.40;;;8.10;99.90;;;7.26;100.00;100261.66;5033736;28;20213;-72
2023/12/28 03:05:39;;;;;;;3.80;2.63;;;8.20;99.90;;;7.26;100.00;100265.13;5034313;28;20206;-73
2023/12/28 03:08:07;;;;;;;3.53;2.80;;;8.10;99.90;;;7.26;100.00;100265.13;5033496;28;20230;-72
2023/12/28 03:10:35;;;;;;;4.33;3.00;;;8.10;99.90;;;7.34;100.00;100265.22;5033615;28;20213;-72
2023/12/28 03:13:04;;;;;;;4.13;2.50;;;8.20;99.90;;;7.30;100.00;100263.84;5033289;28;20242;-72
2023/12/28 03:15:34;;;;;;;7.67;3.23;;;8.20;99.90;;;7.28;100.00;100263.16;5033524;28;20242;-72
2023/12/28 03:18:02;;;;;;;5.27;3.00;;;8.20;99.90;;;7.34;100.00;100254.56;5033310;28;20575;-72
2023/12/28 03:20:31;;;;;;;4.97;3.27;;;8.20;99.90;;;7.32;100.00;100256.56;5033515;28;20211;-72
2023/12/28 03:22:59;;;;;;;4.27;2.87;;;8.20;99.90;;;7.34;100.00;100264.38;5032635;28;20305;-72
2023/12/28 03:25:27;;;;;;;7.20;3.60;;;8.20;99.90;;;7.28;100.00;100260.50;5033517;28;20202;-72
2023/12/28 03:27:56;;;;;;;5.03;2.83;;;8.10;99.90;;;7.31;100.00;100254.88;5033370;28;20234;-72
2023/12/28 03:30:24;;;;;;;5.77;2.60;;;8.30;99.90;;;7.32;100.00;100264.53;5033434;28;20209;-72
2023/12/28 03:32:54;;;;;;;3.47;3.00;;;8.20;99.90;;;7.35;100.00;100245.59;5033066;28;20674;-72
2023/12/28 03:35:22;;;;;;;4.47;2.77;;;8.40;99.90;;;7.40;100.00;100248.63;5033388;28;20249;-72
2023/12/28 03:37:50;;;;;;;4.63;2.77;;;8.30;99.90;;;7.39;100.00;100260.28;5032989;28;20305;-73
2023/12/28 03:40:18;;;;;;;5.03;2.90;;;8.30;99.90;;;7.41;100.00;100255.63;5033311;28;20228;-73
2023/12/28 03:42:47;;;;;;;4.70;2.73;;;8.20;99.90;;;7.45;100.00;100258.84;5033392;28;20210;-73
2023/12/28 03:45:16;;;;;;;4.67;2.80;;;8.30;99.90;;;7.44;100.00;100265.97;5033259;28;20206;-73
2023/12/28 03:47:44;;;;;;;4.43;2.63;;;8.30;99.90;;;7.46;100.00;100261.34;5033104;28;20237;-72
2023/12/28 03:50:14;;;;;;;3.50;2.50;;;8.40;99.90;;;7.46;100.00;100264.03;5033022;28;20269;-72
2023/12/28 03:52:42;;;;;;;4.83;2.70;;;8.40;99.90;;;7.43;100.00;100266.97;5033125;28;20242;-72
2023/12/28 03:55:10;;;;;;;4.43;2.60;;;8.30;99.90;;;7.45;100.00;100275.66;5031578;28;20676;-71
2023/12/28 03:57:39;;;;;;;6.00;2.40;;;8.30;99.90;;;7.55;100.00;100268.44;5033189;28;20289;-72
2023/12/28 04:00:09;;;;;;;4.13;2.97;;;8.40;99.90;;;7.52;100.00;100276.72;5033153;28;20203;-72
2023/12/28 04:02:37;;;;;;;3.47;2.83;;;8.40;99.90;;;7.52;100.00;100273.22;5033247;28;20293;-72
2023/12/28 04:05:07;;;;;;;3.77;2.47;;;8.50;99.90;;;7.57;100.00;100285.06;5033121;28;20298;-72
2023/12/28 04:07:36;;;;;;;4.33;2.67;;;8.40;99.90;;;7.56;100.00;100280.75;5032925;28;20227;-72
2023/12/28 04:10:05;;;;;;;3.13;2.60;;;8.40;99.90;;;7.54;100.00;100282.72;5033026;28;20210;-72
2023/12/28 04:12:34;;;;;;;5.27;2.80;;;8.40;99.90;;;7.56;100.00;100270.09;5033193;28;20341;-72
2023/12/28 04:15:02;;;;;;;4.73;2.80;;;8.50;99.90;;;7.56;100.00;100278.09;5032664;28;20203;-72
2023/12/28 04:17:30;;;;;;;3.47;2.50;;;8.40;99.90;;;7.57;100.00;100271.75;5032753;28;20692;-72
2023/12/28 04:19:58;;;;;;;3.90;2.60;;;8.50;99.90;;;7.59;100.00;100272.47;5032994;28;20211;-72
2023/12/28 04:22:26;;;;;;;3.83;2.73;;;8.60;99.90;;;7.61;100.00;100272.28;5032957;28;20238;-73
2023/12/28 04:24:56;;;;;;;3.83;2.70;;;8.50;99.90;;;7.64;100.00;100261.31;5033144;28;20249;-73
2023/12/28 04:27:24;;;;;;;4.10;2.57;;;8.50;99.90;;;7.63;100.00;100265.84;5032546;28;20672;-73
2023/12/28 04:29:52;;;;;;;4.93;2.70;;;8.50;99.90;;;7.68;100.00;100268.03;5032793;28;20276;-73
2023/12/28 04:32:20;;;;;;;3.03;2.43;;;8.60;99.90;;;7.64;100.00;100272.81;5032554;28;20305;-74
2023/12/28 04:34:49;;;;;;;4.57;2.90;;;8.60;99.90;;;7.63;100.00;100276.50;5035111;28;20295;-73
2023/12/28 04:37:17;;;;;;;6.20;3.00;;;8.50;99.90;;;7.63;100.00;100257.84;5036033;28;20576;-73
2023/12/28 04:39:45;;;;;;;3.93;2.30;;;8.40;99.90;;;7.72;100.00;100268.56;5036418;28;20203;-73
2023/12/28 04:42:15;;;;;;;3.27;2.50;;;8.70;99.90;;;7.77;100.00;100271.63;5036207;28;20206;-73
2023/12/28 04:44:43;;;;;;;4.17;2.43;;;8.70;99.90;;;7.80;100.00;100274.81;5035990;28;20687;-73
2023/12/28 04:47:11;;;;;;;3.73;2.77;;;8.70;99.90;;;7.78;100.00;100262.59;5035824;28;20703;-72
2023/12/28 04:49:39;;;;;;;3.70;2.60;;;8.60;99.90;;;7.78;100.00;100267.94;5035923;28;20317;-73
2023/12/28 04:52:07;;;;;;;5.80;3.13;;;8.70;99.90;;;7.78;100.00;100273.28;5036106;28;20202;-72
2023/12/28 04:54:35;;;;;;;2.73;2.20;;;8.70;99.90;;;7.80;100.00;100276.63;5036123;28;20231;-72
2023/12/28 04:57:04;;;;;;;3.50;2.40;;;8.70;99.90;;;7.90;100.00;100264.06;5035788;28;20207;-73
2023/12/28 04:59:34;;;;;;;6.23;2.90;;;8.70;99.90;;;7.95;100.00;100259.09;5035595;28;20245;-72
2023/12/28 05:02:02;;;;;;;4.03;2.50;;;8.80;99.90;;;7.94;100.00;100262.75;5035566;28;20664;-72
2023/12/28 05:04:30;;;;;;;4.50;2.47;;;8.80;99.90;;;8.03;100.00;100261.81;5035881;28;20206;-73
2023/12/28 05:06:59;;;;;;;4.53;2.20;;;8.90;99.90;;;8.00;100.00;100251.47;5036729;28;20214;-73
2023/12/28 05:09:27;;;;;;;3.07;2.43;;;8.90;99.90;;;7.99;100.00;100263.13;5035659;28;20231;-72
2023/12/28 05:11:55;;;;;;;2.93;2.30;;;8.80;99.90;;;8.03;100.00;100267.16;5035766;28;20210;-72
2023/12/28 05:14:23;;;;;;;6.47;2.87;;;8.90;99.90;;;8.05;100.00;100265.16;5035728;28;20202;-72
2023/12/28 05:16:53;;;;;;;4.00;2.47;;;9.00;99.90;;;8.01;100.00;100258.47;5035383;28;20680;-72
2023/12/28 05:19:21;;;;;;;4.40;2.57;;;9.00;99.90;;;8.01;100.00;100255.81;5035146;28;20786;-73
2023/12/28 05:21:49;;;;;;;3.57;2.30;;;8.80;99.90;;;8.06;100.00;100258.84;5035567;28;20207;-73
2023/12/28 05:24:17;;;;;;;4.80;2.30;;;9.00;99.90;;;8.06;100.00;100266.84;5035495;28;20235;-73
2023/12/28 05:26:46;;;;;;;4.27;2.40;;;9.00;99.90;;;8.03;100.00;100277.81;5035483;28;20210;-72
2023/12/28 05:29:14;;;;;;;5.37;2.60;;;8.90;99.90;;;8.04;100.00;100284.84;5035337;28;20329;-72
2023/12/28 05:31:42;;;;;;;3.90;2.30;;;9.10;99.90;;;8.04;100.00;100277.69;5035034;28;20677;-72
2023/12/28 05:34:11;;;;;;;3.90;2.60;;;8.90;99.90;;;8.06;100.00;100288.16;5035015;28;20687;-72
2023/12/28 05:36:41;;;;;;;4.53;2.70;;;8.90;99.90;;;8.01;100.00;100279.81;5035379;28;20203;-72
2023/12/28 05:39:11;;;;;;;4.27;2.30;;;8.90;99.90;;;8.03;100.00;100272.47;5035237;28;20225;-72
2023/12/28 05:41:40;;;;;;;5.77;2.50;;;8.90;99.90;;;8.00;100.00;100273.63;5035334;28;20321;-72
2023/12/28 05:44:08;;;;;;;4.23;2.17;;;8.90;99.90;;;8.00;100.00;100278.97;5035163;28;20276;-73
2023/12/28 05:46:36;;;;;;;8.23;2.63;;;8.90;99.90;;;8.02;100.00;100282.31;5034154;28;20206;-73
2023/12/28 05:49:05;;;;;;;6.53;2.63;;;8.90;99.90;;;8.04;100.00;100274.16;5034879;28;20322;-73
2023/12/28 05:51:40;;;;;;;4.13;2.40;;;9.20;99.90;;;7.99;100.00;100279.13;5034623;28;20221;-72
2023/12/28 05:54:09;;;;;;;4.40;2.43;;;8.90;99.90;;;8.08;100.00;100275.53;5034980;28;20623;-73
2023/12/28 05:56:37;;;;;;;5.23;2.40;;;8.90;99.90;;;8.12;100.00;100276.88;5034986;28;20206;-73
2023/12/28 05:59:06;;;;;;;4.07;2.40;;;9.00;99.90;;;8.13;100.00;100274.06;5034769;28;20226;-72
2023/12/28 06:01:44;;;;;;;4.30;2.30;;;9.00;99.90;;;8.16;100.00;100276.41;5035381;28;20286;-73
2023/12/28 06:04:12;;;;;;;3.50;2.10;;;9.20;99.90;;;8.20;100.00;100281.44;5034981;28;20195;-75
2023/12/28 06:06:42;;;;;;;4.00;2.20;;;9.10;99.90;;;8.22;100.00;100277.59;5034836;28;20203;-75
2023/12/28 06:09:11;;;;;;;5.60;2.57;;;9.10;99.90;;;8.18;100.00;100276.28;5034481;28;20234;-74
2023/12/28 06:11:39;;;;;;;3.27;2.20;;;9.00;99.90;;;8.20;100.00;100274.28;5034575;28;20293;-75
2023/12/28 06:14:08;;;;;;;3.93;2.00;;;9.00;99.90;;;8.28;100.00;100279.72;5034523;28;20213;-75
2023/12/28 06:16:36;;;;;;;6.80;2.27;;;9.20;99.90;;;8.41;100.00;100288.13;5035307;28;20229;-75
2023/12/28 06:19:05;;;;;;;4.97;2.17;;;9.30;99.90;;;8.36;100.00;100285.06;5034419;28;20225;-74
2023/12/28 06:21:34;;;;;;;3.10;1.97;;;9.30;99.90;;;8.38;100.00;100295.59;5034082;28;20736;-74
2023/12/28 06:24:04;;;;;;;3.20;2.40;;;9.20;99.90;;;8.50;100.00;100294.31;5034343;28;20207;-74
2023/12/28 06:26:32;;;;;;;4.57;2.10;;;9.30;99.90;;;8.51;100.00;100302.19;5034129;28;20195;-74
2023/12/28 06:29:00;;;;;;;5.27;2.60;;;9.40;99.90;;;8.48;100.00;100304.34;5034156;28;20294;-74
2023/12/28 06:31:28;;;;;;;3.60;2.10;;;9.40;99.90;;;8.51;100.00;100309.34;5034242;28;20237;-74
2023/12/28 06:33:57;;;;;;;2.87;2.17;;;9.30;99.90;;;8.42;100.00;100311.16;5034226;28;20218;-74
2023/12/28 06:36:25;;;;;;;3.73;2.33;;;9.40;99.90;;;8.40;100.00;100305.09;5034256;28;20290;-74
2023/12/28 06:38:53;;;;;;;4.40;1.90;;;9.30;99.90;;;8.36;100.00;100311.75;5034077;28;20238;-74
2023/12/28 06:41:23;;;;;;;5.43;2.20;;;9.20;99.90;;;8.38;100.00;100315.13;5034582;28;20241;-74
2023/12/28 06:43:51;;;;;;;3.40;2.03;;;9.20;99.90;;;8.36;100.00;100303.75;5034083;28;20289;-74
2023/12/28 06:46:19;;;;;;;4.73;2.10;;;9.20;99.90;;;8.35;100.00;100314.59;5034122;28;20239;-74
2023/12/28 06:48:48;;;;;;;4.90;2.27;;;9.20;99.90;;;8.36;100.00;100317.09;5033957;28;20222;-74
2023/12/28 06:51:21;;;;;;;3.37;1.93;;;9.40;99.90;;;8.41;100.00;100325.47;5033591;28;20230;-74
2023/12/28 06:53:50;;;;;;;4.23;1.90;;;9.30;99.90;;;8.44;100.00;100327.81;5034073;28;20199;-75
2023/12/28 06:56:18;;;;;;;4.07;1.93;;;9.40;99.90;;;8.37;100.00;100333.94;5033427;28;20665;-75
2023/12/28 06:58:48;;;;;;;4.53;2.00;;;9.30;99.90;;;8.37;100.00;100328.59;5033448;28;20317;-73
2023/12/28 07:01:16;;;;;;;6.33;2.27;;;9.20;99.90;;;8.41;100.00;100316.63;5033691;28;20232;-69
2023/12/28 07:03:44;;;;;;;2.77;1.87;;;9.20;99.90;;;8.42;100.00;100315.63;5033365;28;20215;-69
2023/12/28 07:06:15;;;;;;;6.27;2.00;;;9.30;99.90;;;8.46;100.00;100301.81;5033714;28;20206;-69
2023/12/28 07:08:43;;;;;;;3.83;2.00;;;9.30;99.90;;;8.48;100.00;100320.34;5033608;28;20330;-69
2023/12/28 07:11:11;;;;;;;5.97;2.07;;;9.40;99.90;;;8.50;100.00;100318.34;5033553;28;20260;-69
2023/12/28 07:13:39;;;;;;;5.13;2.20;;;9.40;99.90;;;8.52;100.00;100327.88;5033582;28;20260;-69
2023/12/28 07:16:09;;;;;;;4.33;1.77;;;9.40;99.90;;;8.50;100.00;100329.84;5033545;28;20217;-69
2023/12/28 07:18:37;;;;;;;4.23;1.90;;;9.40;99.90;;;8.50;100.00;100318.34;5033140;28;20233;-69
2023/12/28 07:21:09;;;;;;;4.23;2.00;;;9.40;99.90;;;8.52;100.00;100329.72;5033293;28;20661;-69
2023/12/28 07:23:38;;;;;;;4.10;2.00;;;9.40;99.90;;;8.49;100.00;100341.50;5033501;28;20223;-69
2023/12/28 07:26:06;;;;;;;5.50;2.13;;;9.40;99.90;;;8.50;100.00;100340.53;5033635;28;20206;-64
2023/12/28 07:28:34;;;;;;;3.00;1.80;;;9.40;99.90;;;8.53;100.00;100342.03;5033162;28;20719;-66
2023/12/28 07:31:02;;;;;;;3.57;2.00;;;9.30;99.90;;;8.61;100.00;100342.94;5033471;28;20227;-66
2023/12/28 07:33:32;;;;;;;4.57;1.90;;;9.40;99.90;;;8.59;100.00;100347.59;5033077;28;20632;-66
2023/12/28 07:36:02;;;;;;;4.23;2.20;;;9.50;99.90;;;8.63;100.00;100351.59;5033395;28;20212;-66
2023/12/28 07:38:30;;;;;;;6.30;2.20;;;9.50;99.90;;;8.65;100.00;100349.63;5033409;28;20673;-66
2023/12/28 07:40:59;;;;;;;3.50;1.70;;;9.60;99.90;;;8.61;100.00;100348.28;5033083;28;20712;-66
2023/12/28 07:43:28;;;;;;;4.70;2.07;;;9.60;99.90;;;8.68;100.00;100363.66;5033295;28;20202;-66
2023/12/28 07:45:56;;;;;;;3.53;2.03;;;9.60;99.90;;;8.71;100.00;100358.00;5033296;28;20337;-65
2023/12/28 07:48:24;;;;;;;2.97;1.80;;;9.60;99.90;;;8.68;100.00;100347.63;5033274;28;20230;-65
2023/12/28 07:50:54;;;;;;;3.80;1.90;;;9.50;99.90;;;8.64;100.00;100358.63;5032760;28;20671;-65
2023/12/28 07:53:22;;;;;;;5.40;2.30;;;9.50;99.90;;;8.65;100.00;100357.66;5033209;28;20219;-65
2023/12/28 07:55:50;;;;;;;5.30;2.20;;;9.50;99.90;;;8.71;100.00;100345.50;5033192;28;20297;-65
2023/12/28 07:58:18;;;;;;;6.00;2.13;;;9.60;99.90;;;8.71;100.00;100368.66;5033247;28;20226;-65
2023/12/28 08:00:47;;;;;;;5.97;2.73;;;9.60;99.90;;;8.65;100.00;100360.31;5033200;28;20284;-65
2023/12/28 08:03:16;;;;;;;5.17;1.73;;;9.50;99.90;;;8.71;100.00;100360.66;5033121;28;20632;-66
2023/12/28 08:05:44;;;;;;;3.77;1.90;;;9.50;99.90;;;8.70;100.00;100361.69;5032978;28;20217;-66
2023/12/28 08:08:14;;;;;;;4.50;2.03;;;9.50;99.90;;;8.72;100.00;100359.69;5032706;28;20770;-65
2023/12/28 08:10:43;;;;;;;4.10;2.20;;;9.50;99.90;;;8.71;100.00;100355.31;5036669;28;20237;-66
2023/12/28 08:13:11;;;;;;;7.77;2.03;;;9.50;99.90;;;8.75;100.00;100359.34;5036992;28;20313;-66
2023/12/28 08:15:40;;;;;;;2.73;1.60;;;9.70;99.90;;;8.71;100.00;100363.34;5036477;28;20665;-66
2023/12/28 08:18:08;;;;;;;4.60;1.83;;;9.50;99.90;;;8.63;100.00;100367.63;5036436;28;20859;-66
2023/12/28 08:20:37;;;;;;;3.77;2.17;;;9.40;99.90;;;8.62;100.00;100371.31;5036340;28;20574;-66
2023/12/28 08:23:06;;;;;;;3.60;1.87;;;9.50;99.90;;;8.68;100.00;100379.66;5036705;28;20210;-66
2023/12/28 08:25:46;;;;;;;4.80;2.20;;;9.50;99.90;;;8.64;100.00;100377.31;5036714;28;20230;-69
2023/12/28 08:28:16;;;;;;;4.27;2.00;;;9.50;99.90;;;8.68;100.00;100371.66;5036290;28;20234;-68
2023/12/28 08:30:45;;;;;;;2.87;1.90;;;9.40;99.90;;;8.62;100.00;100371.31;5036621;28;20226;-68
2023/12/28 08:33:13;;;;;;;4.13;2.00;;;9.50;99.90;;;8.60;100.00;100373.28;5036494;28;20207;-68
2023/12/28 08:35:42;;;;;;;4.17;2.00;;;9.40;99.90;;;8.59;100.00;100366.28;5036372;28;20217;-68
2023/12/28 08:38:10;;;;;;;3.40;1.73;;;9.40;99.90;;;8.69;100.00;100370.66;5036028;28;20743;-68
2023/12/28 08:40:39;;;;;;;4.73;2.30;;;9.40;99.90;;;8.72;100.00;100367.69;5036484;28;20226;-68
2023/12/28 08:43:08;;;;;;;5.47;2.50;;;9.50;99.90;;;8.76;100.00;100371.72;5035991;28;20210;-68
2023/12/28 08:45:37;;;;;;;4.10;1.90;;;9.60;99.90;;;8.76;100.00;100374.38;5036294;28;20203;-68
2023/12/28 08:48:06;;;;;;;5.00;2.13;;;9.60;99.90;;;8.71;100.00;100374.84;5035936;28;20602;-68
2023/12/28 08:50:34;;;;;;;4.60;1.80;;;9.50;99.90;;;8.70;100.00;100361.69;5035857;28;20230;-68
2023/12/28 08:53:03;;;;;;;3.90;2.00;;;9.50;99.90;;;8.65;100.00;100370.16;5036124;28;20225;-72
2023/12/28 08:55:33;;;;;;;3.27;1.90;;;9.40;99.90;;;8.68;100.00;100374.31;5035969;28;20211;-73
2023/12/28 08:58:01;;;;;;;3.13;2.10;;;9.50;99.90;;;8.70;100.00;100377.69;5036023;28;20230;-73
2023/12/28 09:00:32;;;;;;;4.20;1.80;;;9.50;99.90;;;8.74;100.00;100369.19;5035622;28;20203;-72
2023/12/28 09:03:00;;;;;;;5.17;2.50;;;9.50;99.90;;;8.74;100.00;100373.69;5036043;28;20210;-73
2023/12/28 09:05:29;;;;;;;4.77;1.87;;;9.50;99.90;;;8.81;100.00;100375.56;5035967;28;20213;-73
2023/12/28 09:07:59;;;;;;;4.20;1.90;;;9.60;99.90;;;8.80;100.00;100378.44;5035962;28;20237;-75
2023/12/28 09:10:29;;;;;;;4.47;2.03;;;9.60;99.90;;;8.80;100.00;100383.75;5036130;28;20194;-74
2023/12/28 09:12:59;;;;;;;3.90;1.77;;;9.60;99.90;;;8.84;100.00;100379.75;5036117;28;20334;-75
2023/12/28 09:15:35;;;;;;;4.83;2.27;;;9.60;99.90;;;8.83;100.00;100375.44;5035460;28;20639;-74
2023/12/28 09:18:04;;;;;;;3.20;1.70;;;9.70;99.90;;;8.84;100.00;100377.94;5035025;28;20281;-74
2023/12/28 09:20:35;;;;;;;7.93;2.20;;;9.60;99.90;;;8.87;100.00;100388.28;5035405;28;20210;-74
2023/12/28 09:23:03;;;;;;;5.03;2.03;;;9.80;99.90;;;8.92;100.00;100383.31;5035687;28;20199;-74
2023/12/28 09:25:31;;;;;;;5.27;1.80;;;9.70;99.90;;;8.93;100.00;100398.34;5034553;28;20203;-74
2023/12/28 09:27:59;;;;;;;3.30;1.60;;;9.80;99.90;;;8.98;100.00;100392.53;5035244;28;20668;-76
2023/12/28 09:30:28;;;;;;;3.57;1.70;;;9.80;99.90;;;9.02;100.00;100392.06;5036236;28;20214;-74
2023/12/28 09:32:59;;;;;;;3.53;2.07;;;9.80;99.90;;;8.99;100.00;100391.53;5035428;28;20329;-74
2023/12/28 09:35:28;;;;;;;6.30;2.10;;;9.80;99.90;;;9.06;100.00;100384.56;5035243;28;20253;-74
2023/12/28 09:37:57;;;;;;;5.10;2.07;;;9.90;99.90;;;9.09;100.00;100394.94;5035125;28;20342;-73
2023/12/28 09:40:26;;;;;;;6.57;2.20;;;9.90;99.90;;;9.11;100.00;100387.59;5035238;28;20206;-74
2023/12/28 09:43:06;;;;;;;4.17;2.07;;;10.00;99.90;;;9.16;100.00;100390.63;5035331;28;20249;-74
2023/12/28 09:45:35;;;;;;;3.90;2.03;;;10.00;99.90;;;9.18;100.00;100392.13;5035422;28;20187;-74
2023/12/28 09:48:06;;;;;;;4.70;2.30;;;10.00;99.90;;;9.27;100.00;100395.69;5035025;28;20297;-74
2023/12/28 09:50:35;;;;;;;5.43;2.00;;;10.00;99.90;;;9.31;100.00;100390.88;5034824;28;20253;-74
2023/12/28 09:53:04;;;;;;;4.43;2.23;;;10.10;99.90;;;9.36;95.65;100388.53;5035063;28;20238;-73
2023/12/28 09:55:32;;;;;;;3.87;1.80;;;10.20;99.90;;;9.32;95.05;100381.84;5035162;28;20242;-74
2023/12/28 09:58:05;;;;;;;4.03;1.80;;;10.10;99.90;;;9.39;93.93;100386.38;5034512;28;20786;-73
2023/12/28 10:00:34;;;;;;;4.27;2.13;;;10.20;99.90;;;9.40;94.12;100387.22;5034888;28;20285;-73
2023/12/28 10:03:03;;;;;;;11.13;2.33;;;10.30;99.90;;;9.39;94.00;100374.84;5034783;28;20238;-73
2023/12/28 10:05:32;;;;;;;7.50;2.37;;;10.20;99.90;;;9.42;92.52;100378.03;5034849;28;20206;-74
2023/12/28 10:08:00;;;;;;;6.70;2.03;;;10.30;99.90;;;9.43;92.04;100392.25;5034590;28;20234;-73
2023/12/28 10:10:30;;;;;;;6.83;2.23;;;10.30;99.90;;;9.45;92.57;100379.56;5034369;28;20302;-73
2023/12/28 10:12:59;;;;;;;4.80;2.17;;;10.30;99.90;;;9.42;92.50;100383.38;5034585;28;20265;-74
2023/12/28 10:15:27;;;;;;;6.63;2.10;;;10.30;99.90;;;9.41;93.41;100389.75;5034341;28;20215;-74
2023/12/28 10:17:55;;;;;;;5.53;2.00;;;10.20;99.90;;;9.42;93.08;100367.34;5034410;28;20230;-73
2023/12/28 10:20:27;;;;;;;4.43;2.10;;;10.20;99.90;;;9.40;94.50;100364.00;5034474;28;20232;-73
2023/12/28 10:22:56;;;;;;;6.37;2.10;;;10.20;99.90;;;9.44;92.86;100354.69;5034466;28;20283;-73
2023/12/28 10:25:25;;;;;;;6.03;2.40;;;10.20;99.90;;;9.48;92.14;100342.69;5034431;28;20210;-67
2023/12/28 10:27:54;;;;;;;6.93;2.23;;;10.30;99.90;;;9.57;90.67;100341.69;5034060;28;20747;-66